createdAt,value
2023-04-30T00:00:11.089Z,95.74
2023-04-30T00:01:11.060Z,96.15
2023-04-30T00:02:11.086Z,95.74
2023-04-30T00:03:11.134Z,95.22
2023-04-30T00:04:11.073Z,94.54
2023-04-30T00:05:11.028Z,94.34
2023-04-30T00:06:11.044Z,94.23
2023-04-30T00:07:11.022Z,93.55
2023-04-30T00:08:10.960Z,93.24
2023-04-30T00:09:10.984Z,93.55
2023-04-30T00:10:10.995Z,93.45
2023-04-30T00:11:10.950Z,93.87
2023-04-30T00:12:10.936Z,93.80
2023-04-30T00:13:10.944Z,93.95
2023-04-30T00:14:10.941Z,94.22
2023-04-30T00:15:10.894Z,94.63
2023-04-30T00:16:10.984Z,94.84
2023-04-30T00:17:10.901Z,94.47
2023-04-30T00:18:10.908Z,94.78
2023-04-30T00:19:10.909Z,94.98
2023-04-30T00:20:10.869Z,95.81
2023-04-30T00:21:10.863Z,96.49
2023-04-30T00:22:10.840Z,96.95
2023-04-30T00:23:10.833Z,97.11
2023-04-30T00:24:10.836Z,96.80
2023-04-30T00:25:10.821Z,96.75
2023-04-30T00:26:10.807Z,97.22
2023-04-30T00:27:10.783Z,97.01
2023-04-30T00:28:10.796Z,98.46
2023-04-30T00:29:10.784Z,97.32
2023-04-30T00:30:10.736Z,96.91
2023-04-30T00:31:10.786Z,96.64
2023-04-30T00:32:10.834Z,96.12
2023-04-30T00:33:11.759Z,96.85
2023-04-30T00:34:10.748Z,97.88
2023-04-30T00:35:10.732Z,98.30
2023-04-30T00:36:10.670Z,98.09
2023-04-30T00:37:10.686Z,98.15
2023-04-30T00:38:10.702Z,97.36
2023-04-30T00:39:10.649Z,97.36
2023-04-30T00:40:10.672Z,96.75
2023-04-30T00:41:10.667Z,96.37
2023-04-30T00:42:10.639Z,95.96
2023-04-30T00:43:10.615Z,95.96
2023-04-30T00:44:10.636Z,95.86
2023-04-30T00:45:10.622Z,96.06
2023-04-30T00:46:10.595Z,95.49
2023-04-30T00:47:10.589Z,95.49
2023-04-30T00:48:10.549Z,95.39
2023-04-30T00:49:10.587Z,95.39
2023-04-30T00:50:10.567Z,95.90
2023-04-30T00:51:10.596Z,96.11
2023-04-30T00:52:10.523Z,95.53
2023-04-30T00:53:10.510Z,94.81
2023-04-30T00:54:10.528Z,95.22
2023-04-30T00:55:10.516Z,95.22
2023-04-30T00:56:10.470Z,95.32
2023-04-30T00:57:10.477Z,96.98
2023-04-30T00:58:10.480Z,96.67
2023-04-30T00:59:10.459Z,96.88
2023-04-30T01:00:10.454Z,97.24
2023-04-30T01:01:10.512Z,98.33
2023-04-30T01:02:10.462Z,99.63
2023-04-30T01:03:10.475Z,99.52
2023-04-30T01:04:10.430Z,99.63
2023-04-30T01:05:10.392Z,99.22
2023-04-30T01:06:10.386Z,98.74
2023-04-30T01:07:10.400Z,99.88
2023-04-30T01:08:10.372Z,99.99
2023-04-30T01:09:10.381Z,99.99
2023-04-30T01:10:10.324Z,99.88
2023-04-30T01:11:10.337Z,99.99
2023-04-30T01:12:10.315Z,99.99
2023-04-30T01:13:10.339Z,99.47
2023-04-30T01:14:10.331Z,98.90
2023-04-30T01:15:10.323Z,99.00
2023-04-30T01:16:10.287Z,99.62
2023-04-30T01:17:10.347Z,99.93
2023-04-30T01:18:10.319Z,99.93
2023-04-30T01:19:10.258Z,99.57
2023-04-30T01:20:10.249Z,99.93
2023-04-30T01:21:10.239Z,99.99
2023-04-30T01:22:10.203Z,99.99
2023-04-30T01:23:10.207Z,99.57
2023-04-30T01:24:10.193Z,99.88
2023-04-30T01:25:10.197Z,99.99
2023-04-30T01:26:10.160Z,99.99
2023-04-30T01:27:10.203Z,99.57
2023-04-30T01:28:10.162Z,99.84
2023-04-30T01:29:10.124Z,99.94
2023-04-30T01:30:10.158Z,99.43
2023-04-30T01:31:10.177Z,99.52
2023-04-30T01:32:10.108Z,99.73
2023-04-30T01:33:10.116Z,99.94
2023-04-30T01:34:10.121Z,99.84
2023-04-30T01:35:10.063Z,99.99
2023-04-30T01:36:10.081Z,99.99
2023-04-30T01:37:10.056Z,99.99
2023-04-30T01:38:10.033Z,99.99
2023-04-30T01:39:10.042Z,99.99
2023-04-30T01:40:10.047Z,99.99
2023-04-30T01:41:10.028Z,99.99
2023-04-30T01:42:10.030Z,99.99
2023-04-30T01:43:10.002Z,99.99
2023-04-30T01:44:09.988Z,99.99
2023-04-30T01:45:09.971Z,99.58
2023-04-30T01:46:10.017Z,99.38
2023-04-30T01:47:09.955Z,98.86
2023-04-30T01:48:09.924Z,98.75
2023-04-30T01:49:09.925Z,98.60
2023-04-30T01:50:09.961Z,99.01
2023-04-30T01:51:09.895Z,98.60
2023-04-30T01:52:09.910Z,98.70
2023-04-30T01:53:09.882Z,98.18
2023-04-30T01:54:09.864Z,98.12
2023-04-30T01:55:09.871Z,98.43
2023-04-30T01:56:09.857Z,99.05
2023-04-30T01:57:09.849Z,99.37
2023-04-30T01:58:09.820Z,99.05
2023-04-30T01:59:09.823Z,98.54
2023-04-30T02:00:09.832Z,99.16
2023-04-30T02:01:09.803Z,99.99
2023-04-30T02:02:09.793Z,99.99
2023-04-30T02:03:09.848Z,99.99
2023-04-30T02:04:09.773Z,99.99
2023-04-30T02:05:09.765Z,99.68
2023-04-30T02:06:09.787Z,99.78
2023-04-30T02:07:09.751Z,99.99
2023-04-30T02:08:09.718Z,99.78
2023-04-30T02:09:09.704Z,99.62
2023-04-30T02:10:09.743Z,99.47
2023-04-30T02:11:09.721Z,99.21
2023-04-30T02:12:09.674Z,98.79
2023-04-30T02:13:09.666Z,98.69
2023-04-30T02:14:09.681Z,98.69
2023-04-30T02:15:09.629Z,98.52
2023-04-30T02:16:09.663Z,98.52
2023-04-30T02:17:09.635Z,98.52
2023-04-30T02:18:09.641Z,98.52
2023-04-30T02:19:09.597Z,98.26
2023-04-30T02:20:09.611Z,97.64
2023-04-30T02:21:09.602Z,97.53
2023-04-30T02:22:09.552Z,96.60
2023-04-30T02:23:09.571Z,97.27
2023-04-30T02:24:09.567Z,96.69
2023-04-30T02:25:09.541Z,95.96
2023-04-30T02:26:09.542Z,96.11
2023-04-30T02:27:09.519Z,96.48
2023-04-30T02:28:09.506Z,97.00
2023-04-30T02:29:09.489Z,96.83
2023-04-30T02:30:09.507Z,96.83
2023-04-30T02:31:09.513Z,96.89
2023-04-30T02:32:09.442Z,97.25
2023-04-30T02:33:09.488Z,97.45
2023-04-30T02:34:09.457Z,98.66
2023-04-30T02:35:09.444Z,99.18
2023-04-30T02:36:09.423Z,99.38
2023-04-30T02:37:09.410Z,99.99
2023-04-30T02:38:09.404Z,99.99
2023-04-30T02:39:09.364Z,99.99
2023-04-30T02:40:09.382Z,99.91
2023-04-30T02:41:09.375Z,99.91
2023-04-30T02:42:09.353Z,99.99
2023-04-30T02:43:09.335Z,99.80
2023-04-30T02:44:09.344Z,99.64
2023-04-30T02:45:09.355Z,99.54
2023-04-30T02:46:09.329Z,99.16
2023-04-30T02:47:09.331Z,99.48
2023-04-30T02:48:09.379Z,99.54
2023-04-30T02:49:09.270Z,99.48
2023-04-30T02:50:09.276Z,99.42
2023-04-30T02:51:09.263Z,99.99
2023-04-30T02:52:09.243Z,99.99
2023-04-30T02:53:09.236Z,99.99
2023-04-30T02:54:09.237Z,99.99
2023-04-30T02:55:09.192Z,99.99
2023-04-30T02:56:09.222Z,99.99
2023-04-30T02:57:09.190Z,99.99
2023-04-30T02:58:09.160Z,99.99
2023-04-30T02:59:10.181Z,99.99
2023-04-30T03:00:09.175Z,99.99
2023-04-30T03:01:09.225Z,99.99
2023-04-30T03:02:09.143Z,99.99
2023-04-30T03:03:09.316Z,99.99
2023-04-30T03:04:09.129Z,99.99
2023-04-30T03:05:09.118Z,99.99
2023-04-30T03:06:09.109Z,99.99
2023-04-30T03:07:09.086Z,99.99
2023-04-30T03:08:09.101Z,99.99
2023-04-30T03:09:09.070Z,99.99
2023-04-30T03:10:09.033Z,99.99
2023-04-30T03:11:09.058Z,99.99
2023-04-30T03:12:09.023Z,99.99
2023-04-30T03:13:09.030Z,99.99
2023-04-30T03:14:09.021Z,99.99
2023-04-30T03:15:09.046Z,99.57
2023-04-30T03:16:09.004Z,99.88
2023-04-30T03:17:08.967Z,99.57
2023-04-30T03:18:09.000Z,99.46
2023-04-30T03:19:08.919Z,99.51
2023-04-30T03:20:09.014Z,99.82
2023-04-30T03:21:08.916Z,99.30
2023-04-30T03:22:08.901Z,99.51
2023-04-30T03:23:08.911Z,99.82
2023-04-30T03:24:08.958Z,99.99
2023-04-30T03:25:08.892Z,99.99
2023-04-30T03:26:08.867Z,99.99
2023-04-30T03:27:08.890Z,99.99
2023-04-30T03:28:09.934Z,99.99
2023-04-30T03:29:08.830Z,99.99
2023-04-30T03:30:09.864Z,99.99
2023-04-30T03:31:08.854Z,99.99
2023-04-30T03:32:08.813Z,99.99
2023-04-30T03:33:08.885Z,99.99
2023-04-30T03:34:08.801Z,99.99
2023-04-30T03:35:08.768Z,99.99
2023-04-30T03:36:08.780Z,99.99
2023-04-30T03:37:08.768Z,99.99
2023-04-30T03:38:08.733Z,99.99
2023-04-30T03:39:08.751Z,99.99
2023-04-30T03:40:08.754Z,99.99
2023-04-30T03:41:08.737Z,99.99
2023-04-30T03:42:08.685Z,99.99
2023-04-30T03:43:08.737Z,99.99
2023-04-30T03:44:08.699Z,99.99
2023-04-30T03:45:08.668Z,99.99
2023-04-30T03:46:08.746Z,99.99
2023-04-30T03:47:09.656Z,99.99
2023-04-30T03:48:08.718Z,99.99
2023-04-30T03:49:08.657Z,99.99
2023-04-30T03:50:08.648Z,99.99
2023-04-30T03:51:08.596Z,99.99
2023-04-30T03:52:08.630Z,99.99
2023-04-30T03:53:08.595Z,99.99
2023-04-30T03:54:08.556Z,99.99
2023-04-30T03:55:08.586Z,99.99
2023-04-30T03:56:08.572Z,99.99
2023-04-30T03:57:08.564Z,99.99
2023-04-30T03:58:08.535Z,99.99
2023-04-30T03:59:08.614Z,99.99
2023-04-30T04:00:08.526Z,99.99
2023-04-30T04:01:08.547Z,99.99
2023-04-30T04:02:08.745Z,99.99
2023-04-30T04:03:08.558Z,99.99
2023-04-30T04:04:08.567Z,99.99
2023-04-30T04:05:08.476Z,99.99
2023-04-30T04:06:08.548Z,99.99
2023-04-30T04:07:08.437Z,99.99
2023-04-30T04:08:08.445Z,99.99
2023-04-30T04:09:08.436Z,99.99
2023-04-30T04:10:08.432Z,99.99
2023-04-30T04:11:08.400Z,99.99
2023-04-30T04:12:08.426Z,99.99
2023-04-30T04:13:08.389Z,99.99
2023-04-30T04:14:08.413Z,99.99
2023-04-30T04:15:08.350Z,99.99
2023-04-30T04:16:08.527Z,99.99
2023-04-30T04:17:08.339Z,99.99
2023-04-30T04:18:08.318Z,99.99
2023-04-30T04:19:08.321Z,99.99
2023-04-30T04:20:08.465Z,99.99
2023-04-30T04:21:08.299Z,99.99
2023-04-30T04:22:08.260Z,99.99
2023-04-30T04:23:08.300Z,99.99
2023-04-30T04:24:08.254Z,99.99
2023-04-30T04:25:08.251Z,99.99
2023-04-30T04:26:08.259Z,99.99
2023-04-30T04:27:08.219Z,99.99
2023-04-30T04:28:08.205Z,99.99
2023-04-30T04:29:08.228Z,99.99
2023-04-30T04:30:08.209Z,99.99
2023-04-30T04:31:08.182Z,99.99
2023-04-30T04:32:08.219Z,99.99
2023-04-30T04:33:08.228Z,99.99
2023-04-30T04:34:08.149Z,99.99
2023-04-30T04:35:08.152Z,99.99
2023-04-30T04:36:08.146Z,99.99
2023-04-30T04:37:08.114Z,99.99
2023-04-30T04:38:08.089Z,99.99
2023-04-30T04:39:08.099Z,99.99
2023-04-30T04:40:08.109Z,99.99
2023-04-30T04:41:08.081Z,99.99
2023-04-30T04:42:08.044Z,99.99
2023-04-30T04:43:08.040Z,99.99
2023-04-30T04:44:08.053Z,99.99
2023-04-30T04:45:08.021Z,99.99
2023-04-30T04:46:08.064Z,99.99
2023-04-30T04:47:08.022Z,99.99
2023-04-30T04:48:08.017Z,99.99
2023-04-30T04:49:07.990Z,99.99
2023-04-30T04:50:07.992Z,99.99
2023-04-30T04:51:07.971Z,99.99
2023-04-30T04:52:07.938Z,99.99
2023-04-30T04:53:07.935Z,99.99
2023-04-30T04:54:07.955Z,99.99
2023-04-30T04:55:07.924Z,99.99
2023-04-30T04:56:07.945Z,99.99
2023-04-30T04:57:07.900Z,99.99
2023-04-30T04:58:07.877Z,99.99
2023-04-30T04:59:07.870Z,99.99
2023-04-30T05:00:07.880Z,99.99
2023-04-30T05:01:07.871Z,99.99
2023-04-30T05:02:07.913Z,99.99
2023-04-30T05:03:07.964Z,99.99
2023-04-30T05:04:08.056Z,99.99
2023-04-30T05:05:07.852Z,99.99
2023-04-30T05:06:07.920Z,99.99
2023-04-30T05:07:07.809Z,99.99
2023-04-30T05:08:07.781Z,99.99
2023-04-30T05:09:07.769Z,99.99
2023-04-30T05:10:07.814Z,99.99
2023-04-30T05:11:07.765Z,99.99
2023-04-30T05:12:07.736Z,99.99
2023-04-30T05:13:07.742Z,99.99
2023-04-30T05:14:07.822Z,99.99
2023-04-30T05:15:07.744Z,99.99
2023-04-30T05:16:07.737Z,99.99
2023-04-30T05:17:07.714Z,99.99
2023-04-30T05:18:07.732Z,99.99
2023-04-30T05:19:07.676Z,99.99
2023-04-30T05:20:07.676Z,99.99
2023-04-30T05:21:07.655Z,99.99
2023-04-30T05:22:07.649Z,99.99
2023-04-30T05:23:07.642Z,99.99
2023-04-30T05:24:07.648Z,99.99
2023-04-30T05:25:07.616Z,99.99
2023-04-30T05:26:07.593Z,99.99
2023-04-30T05:27:07.613Z,99.99
2023-04-30T05:28:07.571Z,99.99
2023-04-30T05:29:07.630Z,99.99
2023-04-30T05:30:07.583Z,99.99
2023-04-30T05:31:07.565Z,99.99
2023-04-30T05:32:07.584Z,99.99
2023-04-30T05:33:07.559Z,99.99
2023-04-30T05:34:07.525Z,99.99
2023-04-30T05:35:07.519Z,99.99
2023-04-30T05:36:07.517Z,99.99
2023-04-30T05:37:08.490Z,99.99
2023-04-30T05:38:07.481Z,99.99
2023-04-30T05:39:07.461Z,99.99
2023-04-30T05:40:07.470Z,99.99
2023-04-30T05:41:07.461Z,99.99
2023-04-30T05:42:07.454Z,99.99
2023-04-30T05:43:07.431Z,99.99
2023-04-30T05:44:07.431Z,99.99
2023-04-30T05:45:07.452Z,99.99
2023-04-30T05:46:07.415Z,99.99
2023-04-30T05:47:07.398Z,99.99
2023-04-30T05:48:07.425Z,99.99
2023-04-30T05:49:07.403Z,99.99
2023-04-30T05:50:07.361Z,99.99
2023-04-30T05:51:07.352Z,99.99
2023-04-30T05:52:07.331Z,99.99
2023-04-30T05:53:07.324Z,99.99
2023-04-30T05:54:07.325Z,99.99
2023-04-30T05:55:07.325Z,99.99
2023-04-30T05:56:07.381Z,99.99
2023-04-30T05:57:07.281Z,99.99
2023-04-30T05:58:07.272Z,99.77
2023-04-30T05:59:07.269Z,99.87
2023-04-30T06:00:07.250Z,99.31
2023-04-30T06:01:07.251Z,99.31
2023-04-30T06:02:07.276Z,98.33
2023-04-30T06:03:07.269Z,98.13
2023-04-30T06:04:07.208Z,97.72
2023-04-30T06:05:07.244Z,96.79
2023-04-30T06:06:07.248Z,96.17
2023-04-30T06:07:07.175Z,96.27
2023-04-30T06:08:07.183Z,95.96
2023-04-30T06:09:07.172Z,95.03
2023-04-30T06:10:07.147Z,96.17
2023-04-30T06:11:07.132Z,96.27
2023-04-30T06:12:07.143Z,95.96
2023-04-30T06:13:07.106Z,95.86
2023-04-30T06:14:07.108Z,95.24
2023-04-30T06:15:07.103Z,95.03
2023-04-30T06:16:07.110Z,94.93
2023-04-30T06:17:07.082Z,95.81
2023-04-30T06:18:07.109Z,94.72
2023-04-30T06:19:08.056Z,94.82
2023-04-30T06:20:07.222Z,95.03
2023-04-30T06:21:07.033Z,94.72
2023-04-30T06:22:07.017Z,94.93
2023-04-30T06:23:07.002Z,94.62
2023-04-30T06:24:06.998Z,94.78
2023-04-30T06:25:06.983Z,94.37
2023-04-30T06:26:07.004Z,94.27
2023-04-30T06:27:06.973Z,94.68
2023-04-30T06:28:06.952Z,94.27
2023-04-30T06:29:06.945Z,94.17
2023-04-30T06:30:06.962Z,94.23
2023-04-30T06:31:06.956Z,94.59
2023-04-30T06:32:08.559Z,94.08
2023-04-30T06:33:07.930Z,92.74
2023-04-30T06:34:06.894Z,92.53
2023-04-30T06:35:06.911Z,91.77
2023-04-30T06:36:06.881Z,91.05
2023-04-30T06:37:06.853Z,91.77
2023-04-30T06:38:06.869Z,91.66
2023-04-30T06:39:06.846Z,91.46
2023-04-30T06:40:06.850Z,91.46
2023-04-30T06:41:06.819Z,92.08
2023-04-30T06:42:06.805Z,91.52
2023-04-30T06:43:06.803Z,91.05
2023-04-30T06:44:06.785Z,91.52
2023-04-30T06:45:06.806Z,91.00
2023-04-30T06:46:06.855Z,91.38
2023-04-30T06:47:06.761Z,91.17
2023-04-30T06:48:06.838Z,89.73
2023-04-30T06:49:06.757Z,88.86
2023-04-30T06:50:06.750Z,88.70
2023-04-30T06:51:08.125Z,89.11
2023-04-30T06:52:38.735Z,89.62
2023-04-30T06:53:06.724Z,89.11
2023-04-30T06:54:06.917Z,89.22
2023-04-30T06:55:06.682Z,89.28
2023-04-30T06:56:06.691Z,88.96
2023-04-30T06:57:06.672Z,88.96
2023-04-30T06:58:06.623Z,88.00
2023-04-30T06:59:06.660Z,87.63
2023-04-30T07:00:06.600Z,87.63
2023-04-30T07:01:06.659Z,88.04
2023-04-30T07:02:06.621Z,87.18
2023-04-30T07:03:06.712Z,85.43
2023-04-30T07:04:06.565Z,85.49
2023-04-30T07:05:06.554Z,84.77
2023-04-30T07:06:06.622Z,84.12
2023-04-30T07:07:06.623Z,83.50
2023-04-30T07:08:06.567Z,83.50
2023-04-30T07:09:06.521Z,84.12
2023-04-30T07:10:06.506Z,82.51
2023-04-30T07:11:06.495Z,83.13
2023-04-30T07:12:06.503Z,84.20
2023-04-30T07:13:06.472Z,85.28
2023-04-30T07:14:06.470Z,84.22
2023-04-30T07:15:06.460Z,82.89
2023-04-30T07:16:06.441Z,82.89
2023-04-30T07:17:06.435Z,82.27
2023-04-30T07:18:06.468Z,82.84
2023-04-30T07:19:06.419Z,82.13
2023-04-30T07:20:06.402Z,81.71
2023-04-30T07:21:06.382Z,80.45
2023-04-30T07:22:06.393Z,80.51
2023-04-30T07:23:06.372Z,79.49
2023-04-30T07:24:06.362Z,79.59
2023-04-30T07:25:06.330Z,79.49
2023-04-30T07:26:06.396Z,79.45
2023-04-30T07:27:06.303Z,80.17
2023-04-30T07:28:06.344Z,80.13
2023-04-30T07:29:06.304Z,78.45
2023-04-30T07:30:06.269Z,77.57
2023-04-30T07:31:06.298Z,76.07
2023-04-30T07:32:06.296Z,76.89
2023-04-30T07:33:06.281Z,75.86
2023-04-30T07:34:06.230Z,76.78
2023-04-30T07:35:06.240Z,76.68
2023-04-30T07:36:06.243Z,76.95
2023-04-30T07:37:06.201Z,76.34
2023-04-30T07:38:06.203Z,75.69
2023-04-30T07:39:06.195Z,78.09
2023-04-30T07:40:06.175Z,78.50
2023-04-30T07:41:06.195Z,77.17
2023-04-30T07:42:06.168Z,77.17
2023-04-30T07:43:06.129Z,77.47
2023-04-30T07:44:06.118Z,77.74
2023-04-30T07:45:06.098Z,77.95
2023-04-30T07:46:06.137Z,77.95
2023-04-30T07:47:06.099Z,76.68
2023-04-30T07:48:06.128Z,77.64
2023-04-30T07:49:06.076Z,77.13
2023-04-30T07:50:06.080Z,76.92
2023-04-30T07:51:06.041Z,76.58
2023-04-30T07:52:06.056Z,74.60
2023-04-30T07:53:06.017Z,74.60
2023-04-30T07:54:06.004Z,74.39
2023-04-30T07:55:06.028Z,72.86
2023-04-30T07:56:05.986Z,73.36
2023-04-30T07:57:05.972Z,74.39
2023-04-30T07:58:05.980Z,73.78
2023-04-30T07:59:05.951Z,73.57
2023-04-30T08:00:05.938Z,74.49
2023-04-30T08:01:05.951Z,73.33
2023-04-30T08:02:05.970Z,73.33
2023-04-30T08:03:05.955Z,72.58
2023-04-30T08:04:05.969Z,72.34
2023-04-30T08:05:05.888Z,71.36
2023-04-30T08:06:05.975Z,69.85
2023-04-30T08:07:05.890Z,70.36
2023-04-30T08:08:05.841Z,71.69
2023-04-30T08:09:05.850Z,72.61
2023-04-30T08:10:05.838Z,71.15
2023-04-30T08:11:05.815Z,71.45
2023-04-30T08:12:05.842Z,71.01
2023-04-30T08:13:05.803Z,70.26
2023-04-30T08:14:05.849Z,69.04
2023-04-30T08:15:05.798Z,69.04
2023-04-30T08:16:05.796Z,70.06
2023-04-30T08:17:05.820Z,69.07
2023-04-30T08:18:05.870Z,70.40
2023-04-30T08:19:05.740Z,69.68
2023-04-30T08:20:05.696Z,67.81
2023-04-30T08:21:05.707Z,66.86
2023-04-30T08:22:05.723Z,66.86
2023-04-30T08:23:05.688Z,67.88
2023-04-30T08:24:05.650Z,67.40
2023-04-30T08:25:05.646Z,68.22
2023-04-30T08:26:05.681Z,65.84
2023-04-30T08:27:05.645Z,66.31
2023-04-30T08:28:05.628Z,66.31
2023-04-30T08:29:05.625Z,65.98
2023-04-30T08:30:05.570Z,65.16
2023-04-30T08:31:05.596Z,63.02
2023-04-30T08:32:05.765Z,64.45
2023-04-30T08:33:05.596Z,64.96
2023-04-30T08:34:05.544Z,67.51
2023-04-30T08:35:05.530Z,65.13
2023-04-30T08:36:05.562Z,62.88
2023-04-30T08:37:05.532Z,62.96
2023-04-30T08:38:05.492Z,63.09
2023-04-30T08:39:05.493Z,62.81
2023-04-30T08:40:05.520Z,61.49
2023-04-30T08:41:05.472Z,62.10
2023-04-30T08:42:05.438Z,63.32
2023-04-30T08:43:05.496Z,62.88
2023-04-30T08:44:08.202Z,60.61
2023-04-30T08:45:05.439Z,60.07
2023-04-30T08:46:05.476Z,59.53
2023-04-30T08:47:05.559Z,58.41
2023-04-30T08:48:05.409Z,56.24
2023-04-30T08:49:05.386Z,55.33
2023-04-30T08:50:05.403Z,55.76
2023-04-30T08:51:05.369Z,58.11
2023-04-30T08:52:05.357Z,59.46
2023-04-30T08:53:05.348Z,59.87
2023-04-30T08:54:05.311Z,58.44
2023-04-30T08:55:05.322Z,58.14
2023-04-30T08:56:05.317Z,60.48
2023-04-30T08:57:05.302Z,61.78
2023-04-30T08:58:05.289Z,58.69
2023-04-30T08:59:05.308Z,57.75
2023-04-30T09:00:05.242Z,58.76
2023-04-30T09:01:05.307Z,59.48
2023-04-30T09:02:05.657Z,58.33
2023-04-30T09:03:05.344Z,57.69
2023-04-30T09:04:05.226Z,56.14
2023-04-30T09:05:05.219Z,57.97
2023-04-30T09:06:05.269Z,56.20
2023-04-30T09:07:06.265Z,56.50
2023-04-30T09:08:05.187Z,57.06
2023-04-30T09:09:05.195Z,57.65
2023-04-30T09:10:05.161Z,58.53
2023-04-30T09:11:05.186Z,58.03
2023-04-30T09:12:05.137Z,58.05
2023-04-30T09:13:05.113Z,56.42
2023-04-30T09:14:05.081Z,56.20
2023-04-30T09:15:05.144Z,58.05
2023-04-30T09:16:05.097Z,58.44
2023-04-30T09:17:05.066Z,56.77
2023-04-30T09:18:05.133Z,56.04
2023-04-30T09:19:05.046Z,56.19
2023-04-30T09:20:05.027Z,54.66
2023-04-30T09:21:05.042Z,56.09
2023-04-30T09:22:05.024Z,55.53
2023-04-30T09:23:05.003Z,56.65
2023-04-30T09:24:05.021Z,56.04
2023-04-30T09:25:04.995Z,56.73
2023-04-30T09:26:04.967Z,56.12
2023-04-30T09:27:04.992Z,56.55
2023-04-30T09:28:04.971Z,56.73
2023-04-30T09:29:04.944Z,55.78
2023-04-30T09:30:04.943Z,55.02
2023-04-30T09:31:05.973Z,56.26
2023-04-30T09:32:04.931Z,55.86
2023-04-30T09:33:04.939Z,55.58
2023-04-30T09:34:04.894Z,55.58
2023-04-30T09:35:04.900Z,56.67
2023-04-30T09:36:04.867Z,54.61
2023-04-30T09:37:04.870Z,54.59
2023-04-30T09:38:04.874Z,55.35
2023-04-30T09:39:04.829Z,54.00
2023-04-30T09:40:04.800Z,53.22
2023-04-30T09:41:04.855Z,54.84
2023-04-30T09:42:04.808Z,56.59
2023-04-30T09:43:04.813Z,55.65
2023-04-30T09:44:04.781Z,54.51
2023-04-30T09:45:04.776Z,55.58
2023-04-30T09:46:04.768Z,54.79
2023-04-30T09:47:04.834Z,54.99
2023-04-30T09:48:16.455Z,55.40
2023-04-30T09:49:06.733Z,53.32
2023-04-30T09:50:04.705Z,53.32
2023-04-30T09:51:04.683Z,53.50
2023-04-30T09:52:05.718Z,55.12
2023-04-30T09:53:04.695Z,53.19
2023-04-30T09:54:04.683Z,52.89
2023-04-30T09:55:04.694Z,52.06
2023-04-30T09:56:04.649Z,51.86
2023-04-30T09:57:04.641Z,53.40
2023-04-30T09:58:05.653Z,54.71
2023-04-30T09:59:04.627Z,53.07
2023-04-30T10:00:04.611Z,52.72
2023-04-30T10:01:04.662Z,51.81
2023-04-30T10:02:04.623Z,52.81
2023-04-30T10:03:04.607Z,51.48
2023-04-30T10:04:04.677Z,52.84
2023-04-30T10:05:04.574Z,52.81
2023-04-30T10:06:04.587Z,51.78
2023-04-30T10:07:04.522Z,51.05
2023-04-30T10:08:04.550Z,50.82
2023-04-30T10:09:04.509Z,49.69
2023-04-30T10:10:04.511Z,49.96
2023-04-30T10:11:04.499Z,50.15
2023-04-30T10:12:04.519Z,50.70
2023-04-30T10:13:06.520Z,50.92
2023-04-30T10:14:04.457Z,51.68
2023-04-30T10:15:04.451Z,52.97
2023-04-30T10:16:04.494Z,51.98
2023-04-30T10:17:04.461Z,52.72
2023-04-30T10:18:04.492Z,53.75
2023-04-30T10:19:04.425Z,53.32
2023-04-30T10:20:04.400Z,52.48
2023-04-30T10:21:04.379Z,53.07
2023-04-30T10:22:04.397Z,51.83
2023-04-30T10:23:04.403Z,50.59
2023-04-30T10:24:04.341Z,49.94
2023-04-30T10:25:04.343Z,49.72
2023-04-30T10:26:04.361Z,49.82
2023-04-30T10:27:04.327Z,51.56
2023-04-30T10:28:04.953Z,51.66
2023-04-30T10:29:04.325Z,51.15
2023-04-30T10:30:04.276Z,50.45
2023-04-30T10:31:04.281Z,50.24
2023-04-30T10:32:04.350Z,50.75
2023-04-30T10:33:04.317Z,50.75
2023-04-30T10:34:04.247Z,51.07
2023-04-30T10:35:04.289Z,50.16
2023-04-30T10:36:04.223Z,51.07
2023-04-30T10:37:04.223Z,50.72
2023-04-30T10:38:04.263Z,51.61
2023-04-30T10:39:04.196Z,51.71
2023-04-30T10:40:04.187Z,51.61
2023-04-30T10:41:04.190Z,50.90
2023-04-30T10:42:05.174Z,51.38
2023-04-30T10:43:04.158Z,51.63
2023-04-30T10:44:04.199Z,52.64
2023-04-30T10:45:04.135Z,53.05
2023-04-30T10:46:04.249Z,52.87
2023-04-30T10:47:04.122Z,54.76
2023-04-30T10:48:04.111Z,51.30
2023-04-30T10:49:04.102Z,51.30
2023-04-30T10:50:04.157Z,51.38
2023-04-30T10:51:04.110Z,51.35
2023-04-30T10:52:04.094Z,51.96
2023-04-30T10:53:04.070Z,51.05
2023-04-30T10:54:04.036Z,50.32
2023-04-30T10:55:04.064Z,49.52
2023-04-30T10:56:04.062Z,51.05
2023-04-30T10:57:04.024Z,50.29
2023-04-30T10:58:04.004Z,52.72
2023-04-30T10:59:04.035Z,51.93
2023-04-30T11:00:03.969Z,53.85
2023-04-30T11:01:04.047Z,53.45
2023-04-30T11:02:04.093Z,54.13
2023-04-30T11:03:04.012Z,50.98
2023-04-30T11:04:04.011Z,50.62
2023-04-30T11:05:03.972Z,50.20
2023-04-30T11:06:04.042Z,49.87
2023-04-30T11:07:03.915Z,49.75
2023-04-30T11:08:03.945Z,47.91
2023-04-30T11:09:03.945Z,46.96
2023-04-30T11:10:03.978Z,46.06
2023-04-30T11:11:03.900Z,46.64
2023-04-30T11:12:03.881Z,47.28
2023-04-30T11:13:03.847Z,48.39
2023-04-30T11:14:03.835Z,49.52
2023-04-30T11:15:03.867Z,48.79
2023-04-30T11:16:03.915Z,47.56
2023-04-30T11:17:03.806Z,46.81
2023-04-30T11:18:03.834Z,45.79
2023-04-30T11:19:03.783Z,45.47
2023-04-30T11:20:03.811Z,44.04
2023-04-30T11:21:03.765Z,46.15
2023-04-30T11:22:03.750Z,46.54
2023-04-30T11:23:03.760Z,47.44
2023-04-30T11:24:03.727Z,48.65
2023-04-30T11:25:04.731Z,47.02
2023-04-30T11:26:03.742Z,45.47
2023-04-30T11:27:03.733Z,45.37
2023-04-30T11:28:03.679Z,47.39
2023-04-30T11:29:03.724Z,47.19
2023-04-30T11:30:03.705Z,45.97
2023-04-30T11:31:03.713Z,46.09
2023-04-30T11:32:03.690Z,46.09
2023-04-30T11:33:03.724Z,45.04
2023-04-30T11:34:03.620Z,44.56
2023-04-30T11:35:03.616Z,45.26
2023-04-30T11:36:03.665Z,45.34
2023-04-30T11:37:03.596Z,46.04
2023-04-30T11:38:03.601Z,45.61
2023-04-30T11:39:03.594Z,46.03
2023-04-30T11:40:03.574Z,45.61
2023-04-30T11:41:03.577Z,46.66
2023-04-30T11:42:03.646Z,48.77
2023-04-30T11:43:03.585Z,49.77
2023-04-30T11:44:03.512Z,48.21
2023-04-30T11:45:03.527Z,48.09
2023-04-30T11:46:03.505Z,48.82
2023-04-30T11:47:03.549Z,50.85
2023-04-30T11:48:03.487Z,51.14
2023-04-30T11:49:03.467Z,49.48
2023-04-30T11:50:03.459Z,48.03
2023-04-30T11:51:03.451Z,48.79
2023-04-30T11:52:03.425Z,49.21
2023-04-30T11:53:03.422Z,47.66
2023-04-30T11:54:03.428Z,47.63
2023-04-30T11:55:03.400Z,46.62
2023-04-30T11:56:03.430Z,47.43
2023-04-30T11:57:03.390Z,47.23
2023-04-30T11:58:03.346Z,47.63
2023-04-30T11:59:03.358Z,47.08
2023-04-30T12:00:03.354Z,46.36
2023-04-30T12:01:03.321Z,46.14
2023-04-30T12:02:03.355Z,44.18
2023-04-30T12:03:03.673Z,42.03
2023-04-30T12:04:03.371Z,42.60
2023-04-30T12:05:03.284Z,42.99
2023-04-30T12:06:03.323Z,42.61
2023-04-30T12:07:03.287Z,42.60
2023-04-30T12:08:03.226Z,42.19
2023-04-30T12:09:03.241Z,41.89
2023-04-30T12:10:03.281Z,41.55
2023-04-30T12:11:03.241Z,42.38
2023-04-30T12:12:04.226Z,41.46
2023-04-30T12:13:03.219Z,41.43
2023-04-30T12:14:03.179Z,40.99
2023-04-30T12:15:04.170Z,39.87
2023-04-30T12:16:03.210Z,40.45
2023-04-30T12:17:03.200Z,42.40
2023-04-30T12:18:03.177Z,43.70
2023-04-30T12:19:03.145Z,43.60
2023-04-30T12:20:03.139Z,43.36
2023-04-30T12:21:03.110Z,43.00
2023-04-30T12:22:03.083Z,44.35
2023-04-30T12:23:03.108Z,46.08
2023-04-30T12:24:03.751Z,46.70
2023-04-30T12:25:04.050Z,45.75
2023-04-30T12:26:04.056Z,44.37
2023-04-30T12:27:03.049Z,46.18
2023-04-30T12:28:03.026Z,46.58
2023-04-30T12:29:03.033Z,45.98
2023-04-30T12:30:03.008Z,45.87
2023-04-30T12:31:02.990Z,47.06
2023-04-30T12:32:02.993Z,46.66
2023-04-30T12:33:04.018Z,46.22
2023-04-30T12:34:02.995Z,43.76
2023-04-30T12:35:02.983Z,43.14
2023-04-30T12:36:02.975Z,44.16
2023-04-30T12:37:02.960Z,44.48
2023-04-30T12:38:02.903Z,45.78
2023-04-30T12:39:02.919Z,45.65
2023-04-30T12:40:02.957Z,47.04
2023-04-30T12:41:03.185Z,45.61
2023-04-30T12:42:02.895Z,45.77
2023-04-30T12:43:02.870Z,43.54
2023-04-30T12:44:02.842Z,44.60
2023-04-30T12:45:02.882Z,45.61
2023-04-30T12:46:02.885Z,44.38
2023-04-30T12:47:02.840Z,42.52
2023-04-30T12:48:02.829Z,42.19
2023-04-30T12:49:02.811Z,42.46
2023-04-30T12:50:02.815Z,41.27
2023-04-30T12:51:02.787Z,42.47
2023-04-30T12:52:02.794Z,42.99